sensor_id;sensor_type;location;lat;lon;timestamp;temperature;humidity
15815;DHT22;8008;50.024;8.172;2022-09-17T03:00:21;11.00;99.90
15815;DHT22;8008;50.024;8.172;2022-09-17T03:02:54;11.00;99.90
15815;DHT22;8008;50.024;8.172;2022-09-17T03:05:25;11.00;99.90
15815;DHT22;8008;50.024;8.172;2022-09-17T03:07:54;11.00;99.90
15815;DHT22;8008;50.024;8.172;2022-09-17T03:10:22;11.10;99.90
15815;DHT22;8008;50.024;8.172;2022-09-17T03:12:52;11.00;99.90
15815;DHT22;8008;50.024;8.172;2022-09-17T03:15:21;11.00;99.90
15815;DHT22;8008;50.024;8.172;2022-09-17T03:17:49;11.10;99.90
15815;DHT22;8008;50.024;8.172;2022-09-17T03:20:19;11.00;99.90
15815;DHT22;8008;50.024;8.172;2022-09-17T03:22:47;11.00;99.90
15815;DHT22;8008;50.024;8.172;2022-09-17T03:25:15;11.00;99.90
15815;DHT22;8008;50.024;8.172;2022-09-17T03:27:42;11.00;99.90
15815;DHT22;8008;50.024;8.172;2022-09-17T03:30:10;11.00;99.90
15815;DHT22;8008;50.024;8.172;2022-09-17T03:32:40;11.10;99.90
15815;DHT22;8008;50.024;8.172;2022-09-17T03:35:08;11.20;99.90
15815;DHT22;8008;50.024;8.172;2022-09-17T03:37:36;11.20;99.90
15815;DHT22;8008;50.024;8.172;2022-09-17T03:40:04;11.30;99.90
15815;DHT22;8008;50.024;8.172;2022-09-17T03:42:33;11.30;99.90
15815;DHT22;8008;50.024;8.172;2022-09-17T03:45:00;11.40;99.90
15815;DHT22;8008;50.024;8.172;2022-09-17T03:47:29;11.30;99.90
15815;DHT22;8008;50.024;8.172;2022-09-17T03:49:58;11.30;99.90
15815;DHT22;8008;50.024;8.172;2022-09-17T03:52:26;11.20;99.90
15815;DHT22;8008;50.024;8.172;2022-09-17T03:54:54;11.20;99.90
15815;DHT22;8008;50.024;8.172;2022-09-17T03:57:21;11.20;99.90
15815;DHT22;8008;50.024;8.172;2022-09-17T03:59:49;11.30;99.90
15815;DHT22;8008;50.024;8.172;2022-09-17T04:02:17;11.30;99.90
15815;DHT22;8008;50.024;8.172;2022-09-17T04:04:45;11.30;99.90
15815;DHT22;8008;50.024;8.172;2022-09-17T04:07:15;11.30;99.90
15815;DHT22;8008;50.024;8.172;2022-09-17T04:09:42;11.30;99.90
15815;DHT22;8008;50.024;8.172;2022-09-17T04:12:10;11.20;99.90
15815;DHT22;8008;50.024;8.172;2022-09-17T04:14:38;11.10;99.90
15815;DHT22;8008;50.024;8.172;2022-09-17T04:17:06;11.10;99.90
15815;DHT22;8008;50.024;8.172;2022-09-17T04:19:34;11.10;99.90
15815;DHT22;8008;50.024;8.172;2022-09-17T04:22:02;11.20;99.90
15815;DHT22;8008;50.024;8.172;2022-09-17T04:24:31;11.10;99.90
15815;DHT22;8008;50.024;8.172;2022-09-17T04:26:59;11.10;99.90
15815;DHT22;8008;50.024;8.172;2022-09-17T04:29:27;11.10;99.90
15815;DHT22;8008;50.024;8.172;2022-09-17T04:31:55;11.10;99.90
15815;DHT22;8008;50.024;8.172;2022-09-17T04:34:23;11.10;99.90
15815;DHT22;8008;50.024;8.172;2022-09-17T04:36:50;11.00;99.90
15815;DHT22;8008;50.024;8.172;2022-09-17T04:39:18;11.00;99.90
15815;DHT22;8008;50.024;8.172;2022-09-17T04:41:48;10.90;99.90
15815;DHT22;8008;50.024;8.172;2022-09-17T04:44:16;10.80;99.90
15815;DHT22;8008;50.024;8.172;2022-09-17T04:46:44;10.80;99.90
15815;DHT22;8008;50.024;8.172;2022-09-17T04:49:11;10.90;99.90
15815;DHT22;8008;50.024;8.172;2022-09-17T04:51:39;10.90;99.90
15815;DHT22;8008;50.024;8.172;2022-09-17T04:54:07;10.90;99.90
15815;DHT22;8008;50.024;8.172;2022-09-17T04:56:35;10.90;99.90
15815;DHT22;8008;50.024;8.172;2022-09-17T04:59:04;11.00;99.90
15815;DHT22;8008;50.024;8.172;2022-09-17T05:01:32;11.00;99.90
15815;DHT22;8008;50.024;8.172;2022-09-17T05:04:00;11.00;99.90
15815;DHT22;8008;50.024;8.172;2022-09-17T05:06:28;11.10;99.90
15815;DHT22;8008;50.024;8.172;2022-09-17T05:08:56;11.10;99.90
15815;DHT22;8008;50.024;8.172;2022-09-17T05:11:24;11.20;99.90
15815;DHT22;8008;50.024;8.172;2022-09-17T05:13:52;11.20;99.90
15815;DHT22;8008;50.024;8.172;2022-09-17T05:16:22;11.30;99.90
15815;DHT22;8008;50.024;8.172;2022-09-17T05:18:50;11.30;99.90
15815;DHT22;8008;50.024;8.172;2022-09-17T05:21:18;11.30;99.90
15815;DHT22;8008;50.024;8.172;2022-09-17T05:23:46;11.40;99.90
15815;DHT22;8008;50.024;8.172;2022-09-17T05:26:14;11.40;99.90
15815;DHT22;8008;50.024;8.172;2022-09-17T05:28:42;11.40;99.90
15815;DHT22;8008;50.024;8.172;2022-09-17T05:31:10;11.40;99.90
15815;DHT22;8008;50.024;8.172;2022-09-17T05:33:39;11.40;99.90
15815;DHT22;8008;50.024;8.172;2022-09-17T05:36:07;11.40;99.90
15815;DHT22;8008;50.024;8.172;2022-09-17T05:38:35;11.30;99.90
15815;DHT22;8008;50.024;8.172;2022-09-17T05:41:04;11.30;99.90
15815;DHT22;8008;50.024;8.172;2022-09-17T05:43:32;11.40;99.90
15815;DHT22;8008;50.024;8.172;2022-09-17T05:46:01;11.40;99.90
15815;DHT22;8008;50.024;8.172;2022-09-17T05:48:29;11.40;99.90
15815;DHT22;8008;50.024;8.172;2022-09-17T05:50:58;11.40;99.90
15815;DHT22;8008;50.024;8.172;2022-09-17T05:53:26;11.50;99.90
15815;DHT22;8008;50.024;8.172;2022-09-17T05:55:55;11.40;99.90
15815;DHT22;8008;50.024;8.172;2022-09-17T05:58:24;11.50;99.90
15815;DHT22;8008;50.024;8.172;2022-09-17T06:00:52;11.50;99.90
15815;DHT22;8008;50.024;8.172;2022-09-17T06:03:21;11.60;99.90
15815;DHT22;8008;50.024;8.172;2022-09-17T06:05:54;11.60;99.90
15815;DHT22;8008;50.024;8.172;2022-09-17T06:08:25;11.60;99.90
15815;DHT22;8008;50.024;8.172;2022-09-17T06:10:53;11.60;99.90
15815;DHT22;8008;50.024;8.172;2022-09-17T06:13:27;11.60;99.90
15815;DHT22;8008;50.024;8.172;2022-09-17T06:15:56;11.70;99.90
15815;DHT22;8008;50.024;8.172;2022-09-17T06:18:24;11.70;99.90
15815;DHT22;8008;50.024;8.172;2022-09-17T06:20:52;11.80;99.90
15815;DHT22;8008;50.024;8.172;2022-09-17T06:23:22;11.80;99.90
15815;DHT22;8008;50.024;8.172;2022-09-17T06:25:52;11.70;99.90
15815;DHT22;8008;50.024;8.172;2022-09-17T06:28:20;11.70;99.90
15815;DHT22;8008;50.024;8.172;2022-09-17T06:30:48;11.70;99.90
15815;DHT22;8008;50.024;8.172;2022-09-17T06:33:18;11.80;99.90
15815;DHT22;8008;50.024;8.172;2022-09-17T06:35:46;11.90;99.90
15815;DHT22;8008;50.024;8.172;2022-09-17T06:38:14;11.90;99.90
15815;DHT22;8008;50.024;8.172;2022-09-17T06:40:43;12.00;99.90
15815;DHT22;8008;50.024;8.172;2022-09-17T06:43:16;12.00;99.90
15815;DHT22;8008;50.024;8.172;2022-09-17T06:45:50;11.90;99.90
15815;DHT22;8008;50.024;8.172;2022-09-17T06:48:18;12.00;99.90
15815;DHT22;8008;50.024;8.172;2022-09-17T06:50:46;12.00;99.90
15815;DHT22;8008;50.024;8.172;2022-09-17T06:53:14;12.10;99.90
15815;DHT22;8008;50.024;8.172;2022-09-17T06:55:43;12.20;99.90
15815;DHT22;8008;50.024;8.172;2022-09-17T06:58:11;12.20;99.90
15815;DHT22;8008;50.024;8.172;2022-09-17T07:00:39;12.20;99.90
15815;DHT22;8008;50.024;8.172;2022-09-17T07:03:08;12.10;99.90
15815;DHT22;8008;50.024;8.172;2022-09-17T07:05:36;12.10;99.90
15815;DHT22;8008;50.024;8.172;2022-09-17T07:08:04;12.20;99.90
15815;DHT22;8008;50.024;8.172;2022-09-17T07:10:32;12.30;99.90
15815;DHT22;8008;50.024;8.172;2022-09-17T07:13:01;12.30;99.90
15815;DHT22;8008;50.024;8.172;2022-09-17T07:15:29;12.30;99.90
15815;DHT22;8008;50.024;8.172;2022-09-17T07:17:58;12.40;99.90
15815;DHT22;8008;50.024;8.172;2022-09-17T07:20:25;12.50;99.90
15815;DHT22;8008;50.024;8.172;2022-09-17T07:22:54;12.60;99.90
15815;DHT22;8008;50.024;8.172;2022-09-17T07:25:23;12.60;99.90
15815;DHT22;8008;50.024;8.172;2022-09-17T07:27:52;12.70;99.90
15815;DHT22;8008;50.024;8.172;2022-09-17T07:30:21;12.70;99.90
15815;DHT22;8008;50.024;8.172;2022-09-17T07:32:49;12.80;99.90
15815;DHT22;8008;50.024;8.172;2022-09-17T07:35:17;12.90;99.90
15815;DHT22;8008;50.024;8.172;2022-09-17T07:37:45;12.90;99.90
15815;DHT22;8008;50.024;8.172;2022-09-17T07:40:13;13.00;99.90
15815;DHT22;8008;50.024;8.172;2022-09-17T07:42:41;13.10;99.90
15815;DHT22;8008;50.024;8.172;2022-09-17T07:45:09;13.10;99.90
15815;DHT22;8008;50.024;8.172;2022-09-17T07:47:39;13.10;99.90
15815;DHT22;8008;50.024;8.172;2022-09-17T07:50:08;13.20;99.90
15815;DHT22;8008;50.024;8.172;2022-09-17T07:52:36;13.20;99.90
15815;DHT22;8008;50.024;8.172;2022-09-17T07:55:05;13.20;99.90
15815;DHT22;8008;50.024;8.172;2022-09-17T07:57:33;13.30;99.90
15815;DHT22;8008;50.024;8.172;2022-09-17T08:00:01;13.40;99.90
15815;DHT22;8008;50.024;8.172;2022-09-17T08:02:38;13.40;99.90
15815;DHT22;8008;50.024;8.172;2022-09-17T08:05:07;13.40;99.90
15815;DHT22;8008;50.024;8.172;2022-09-17T08:07:35;13.50;99.90
15815;DHT22;8008;50.024;8.172;2022-09-17T08:10:04;13.60;99.90
15815;DHT22;8008;50.024;8.172;2022-09-17T08:12:32;13.70;99.90
15815;DHT22;8008;50.024;8.172;2022-09-17T08:14:59;13.80;99.90
15815;DHT22;8008;50.024;8.172;2022-09-17T08:17:28;13.70;99.90
15815;DHT22;8008;50.024;8.172;2022-09-17T08:19:57;13.80;99.90
15815;DHT22;8008;50.024;8.172;2022-09-17T08:22:25;13.90;99.90
15815;DHT22;8008;50.024;8.172;2022-09-17T08:24:53;13.90;99.90
15815;DHT22;8008;50.024;8.172;2022-09-17T08:27:21;13.90;99.90
15815;DHT22;8008;50.024;8.172;2022-09-17T08:29:49;13.90;99.90
15815;DHT22;8008;50.024;8.172;2022-09-17T08:32:17;13.90;99.90
15815;DHT22;8008;50.024;8.172;2022-09-17T08:34:44;14.00;99.90
15815;DHT22;8008;50.024;8.172;2022-09-17T08:37:14;14.10;99.90
15815;DHT22;8008;50.024;8.172;2022-09-17T08:39:41;14.10;99.90
15815;DHT22;8008;50.024;8.172;2022-09-17T08:42:16;14.20;99.90
15815;DHT22;8008;50.024;8.172;2022-09-17T08:44:47;14.10;99.90
15815;DHT22;8008;50.024;8.172;2022-09-17T08:47:23;14.10;99.90
15815;DHT22;8008;50.024;8.172;2022-09-17T08:49:54;14.10;99.90
15815;DHT22;8008;50.024;8.172;2022-09-17T08:55:29;14.30;99.90
15815;DHT22;8008;50.024;8.172;2022-09-17T09:01:10;14.40;99.90
15815;DHT22;8008;50.024;8.172;2022-09-17T09:03:54;14.50;99.90
15815;DHT22;8008;50.024;8.172;2022-09-17T09:06:30;14.70;99.90
15815;DHT22;8008;50.024;8.172;2022-09-17T09:09:03;14.80;99.90
15815;DHT22;8008;50.024;8.172;2022-09-17T09:11:32;15.00;99.90
15815;DHT22;8008;50.024;8.172;2022-09-17T09:14:05;15.20;99.90
15815;DHT22;8008;50.024;8.172;2022-09-17T09:16:39;15.30;99.90
15815;DHT22;8008;50.024;8.172;2022-09-17T09:19:16;15.30;99.90
15815;DHT22;8008;50.024;8.172;2022-09-17T09:21:59;15.20;99.90
15815;DHT22;8008;50.024;8.172;2022-09-17T09:24:36;15.10;99.90
15815;DHT22;8008;50.024;8.172;2022-09-17T09:27:14;14.80;99.90
15815;DHT22;8008;50.024;8.172;2022-09-17T09:29:50;14.50;99.90
15815;DHT22;8008;50.024;8.172;2022-09-17T09:32:33;14.40;99.90
15815;DHT22;8008;50.024;8.172;2022-09-17T09:35:16;14.10;99.90
15815;DHT22;8008;50.024;8.172;2022-09-17T09:37:50;13.80;99.90
15815;DHT22;8008;50.024;8.172;2022-09-17T09:40:32;13.50;99.90
15815;DHT22;8008;50.024;8.172;2022-09-17T09:43:10;13.30;99.90
15815;DHT22;8008;50.024;8.172;2022-09-17T09:48:40;13.30;99.90
15815;DHT22;8008;50.024;8.172;2022-09-17T09:51:19;13.50;99.90
15815;DHT22;8008;50.024;8.172;2022-09-17T09:54:02;13.50;99.90
15815;DHT22;8008;50.024;8.172;2022-09-17T09:56:49;13.60;99.90
15815;DHT22;8008;50.024;8.172;2022-09-17T09:59:18;13.50;99.90
15815;DHT22;8008;50.024;8.172;2022-09-17T10:01:46;13.50;99.90
15815;DHT22;8008;50.024;8.172;2022-09-17T10:04:17;13.60;99.90
15815;DHT22;8008;50.024;8.172;2022-09-17T10:06:46;13.80;99.90
15815;DHT22;8008;50.024;8.172;2022-09-17T10:09:15;13.90;99.90
15815;DHT22;8008;50.024;8.172;2022-09-17T10:12:02;13.90;99.90
15815;DHT22;8008;50.024;8.172;2022-09-17T10:14:32;13.90;99.90
15815;DHT22;8008;50.024;8.172;2022-09-17T10:17:17;14.00;99.90
15815;DHT22;8008;50.024;8.172;2022-09-17T10:22:32;14.20;99.90
15815;DHT22;8008;50.024;8.172;2022-09-17T10:25:03;14.10;99.90
15815;DHT22;8008;50.024;8.172;2022-09-17T10:27:33;14.00;99.90
15815;DHT22;8008;50.024;8.172;2022-09-17T10:30:13;14.00;99.90
15815;DHT22;8008;50.024;8.172;2022-09-17T10:32:41;13.90;99.90
15815;DHT22;8008;50.024;8.172;2022-09-17T10:35:24;13.90;99.90
15815;DHT22;8008;50.024;8.172;2022-09-17T10:37:53;14.00;99.90
15815;DHT22;8008;50.024;8.172;2022-09-17T10:40:27;14.00;99.90
15815;DHT22;8008;50.024;8.172;2022-09-17T10:43:20;14.10;99.90
15815;DHT22;8008;50.024;8.172;2022-09-17T10:45:57;14.30;99.90
15815;DHT22;8008;50.024;8.172;2022-09-17T10:48:29;14.50;99.90
15815;DHT22;8008;50.024;8.172;2022-09-17T10:50:58;14.70;99.90
15815;DHT22;8008;50.024;8.172;2022-09-17T10:53:28;14.80;99.90
15815;DHT22;8008;50.024;8.172;2022-09-17T10:56:09;14.80;99.90
15815;DHT22;8008;50.024;8.172;2022-09-17T10:58:55;15.00;99.90
15815;DHT22;8008;50.024;8.172;2022-09-17T11:01:34;15.20;99.90
15815;DHT22;8008;50.024;8.172;2022-09-17T11:04:24;15.40;99.90
15815;DHT22;8008;50.024;8.172;2022-09-17T11:07:31;15.40;99.90
15815;DHT22;8008;50.024;8.172;2022-09-17T11:10:07;15.30;99.90
15815;DHT22;8008;50.024;8.172;2022-09-17T11:12:43;15.50;99.90
15815;DHT22;8008;50.024;8.172;2022-09-17T11:15:28;15.50;99.90
15815;DHT22;8008;50.024;8.172;2022-09-17T11:18:20;15.50;99.90
15815;DHT22;8008;50.024;8.172;2022-09-17T11:21:12;15.50;99.90
15815;DHT22;8008;50.024;8.172;2022-09-17T11:23:56;15.60;99.90
15815;DHT22;8008;50.024;8.172;2022-09-17T11:26:33;15.80;99.90
15815;DHT22;8008;50.024;8.172;2022-09-17T11:29:23;15.90;99.90
15815;DHT22;8008;50.024;8.172;2022-09-17T11:32:03;16.20;99.90
15815;DHT22;8008;50.024;8.172;2022-09-17T11:34:37;16.60;99.90
15815;DHT22;8008;50.024;8.172;2022-09-17T11:37:10;16.60;99.90
15815;DHT22;8008;50.024;8.172;2022-09-17T11:39:44;16.70;99.90
15815;DHT22;8008;50.024;8.172;2022-09-17T11:42:18;16.80;99.90
15815;DHT22;8008;50.024;8.172;2022-09-17T11:44:51;17.00;99.90
15815;DHT22;8008;50.024;8.172;2022-09-17T11:47:26;17.20;99.90
15815;DHT22;8008;50.024;8.172;2022-09-17T11:49:58;17.10;99.90
15815;DHT22;8008;50.024;8.172;2022-09-17T11:52:31;17.10;98.30
15815;DHT22;8008;50.024;8.172;2022-09-17T11:55:17;16.90;97.80
15815;DHT22;8008;50.024;8.172;2022-09-17T11:57:48;16.60;98.50
15815;DHT22;8008;50.024;8.172;2022-09-17T12:00:19;16.50;98.30
15815;DHT22;8008;50.024;8.172;2022-09-17T12:02:52;16.50;97.90
15815;DHT22;8008;50.024;8.172;2022-09-17T12:05:24;16.60;97.20
15815;DHT22;8008;50.024;8.172;2022-09-17T12:07:59;16.70;96.90
15815;DHT22;8008;50.024;8.172;2022-09-17T12:10:40;16.90;98.00
15815;DHT22;8008;50.024;8.172;2022-09-17T12:13:22;17.00;97.60
15815;DHT22;8008;50.024;8.172;2022-09-17T12:16:03;17.00;96.20
15815;DHT22;8008;50.024;8.172;2022-09-17T12:18:47;17.10;95.80
15815;DHT22;8008;50.024;8.172;2022-09-17T12:21:20;17.30;96.60
15815;DHT22;8008;50.024;8.172;2022-09-17T12:23:53;17.40;95.20
15815;DHT22;8008;50.024;8.172;2022-09-17T12:26:29;17.40;94.30
15815;DHT22;8008;50.024;8.172;2022-09-17T12:29:03;17.30;94.50
15815;DHT22;8008;50.024;8.172;2022-09-17T12:31:38;17.20;93.80
15815;DHT22;8008;50.024;8.172;2022-09-17T12:34:24;17.20;94.10
15815;DHT22;8008;50.024;8.172;2022-09-17T12:36:58;17.30;93.70
15815;DHT22;8008;50.024;8.172;2022-09-17T12:39:45;17.40;93.80
15815;DHT22;8008;50.024;8.172;2022-09-17T12:42:28;17.20;93.10
15815;DHT22;8008;50.024;8.172;2022-09-17T12:45:18;17.30;93.40
15815;DHT22;8008;50.024;8.172;2022-09-17T12:51:13;17.00;90.60
15815;DHT22;8008;50.024;8.172;2022-09-17T12:53:51;16.80;90.20
15815;DHT22;8008;50.024;8.172;2022-09-17T12:56:29;16.80;90.90
15815;DHT22;8008;50.024;8.172;2022-09-17T12:59:04;16.80;90.10
15815;DHT22;8008;50.024;8.172;2022-09-17T13:01:39;16.70;90.50
15815;DHT22;8008;50.024;8.172;2022-09-17T13:04:32;16.60;90.80
15815;DHT22;8008;50.024;8.172;2022-09-17T13:08:02;16.60;91.20
15815;DHT22;8008;50.024;8.172;2022-09-17T13:13:57;16.20;93.70
15815;DHT22;8008;50.024;8.172;2022-09-17T13:16:32;15.80;98.50
15815;DHT22;8008;50.024;8.172;2022-09-17T13:19:05;15.60;99.90
15815;DHT22;8008;50.024;8.172;2022-09-17T13:21:50;15.50;99.90
15815;DHT22;8008;50.024;8.172;2022-09-17T13:24:21;15.50;99.90
15815;DHT22;8008;50.024;8.172;2022-09-17T13:26:51;15.40;99.90
15815;DHT22;8008;50.024;8.172;2022-09-17T13:29:56;15.40;99.90
15815;DHT22;8008;50.024;8.172;2022-09-17T13:32:47;15.50;99.90
15815;DHT22;8008;50.024;8.172;2022-09-17T13:35:47;15.70;99.90
15815;DHT22;8008;50.024;8.172;2022-09-17T13:38:19;15.80;99.90
15815;DHT22;8008;50.024;8.172;2022-09-17T13:40:51;15.70;99.90
15815;DHT22;8008;50.024;8.172;2022-09-17T13:43:43;15.40;99.90
15815;DHT22;8008;50.024;8.172;2022-09-17T13:46:20;15.40;99.90
15815;DHT22;8008;50.024;8.172;2022-09-17T13:48:53;15.90;99.90
15815;DHT22;8008;50.024;8.172;2022-09-17T13:51:46;17.00;99.90
15815;DHT22;8008;50.024;8.172;2022-09-17T13:54:17;18.70;97.80
15815;DHT22;8008;50.024;8.172;2022-09-17T13:59:34;21.90;95.30
15815;DHT22;8008;50.024;8.172;2022-09-17T14:02:36;23.40;93.60
15815;DHT22;8008;50.024;8.172;2022-09-17T14:05:32;23.10;91.10
15815;DHT22;8008;50.024;8.172;2022-09-17T14:08:14;20.60;90.80
15815;DHT22;8008;50.024;8.172;2022-09-17T14:10:56;18.60;93.70
15815;DHT22;8008;50.024;8.172;2022-09-17T14:13:53;17.40;94.70
15815;DHT22;8008;50.024;8.172;2022-09-17T14:16:31;16.40;95.90
15815;DHT22;8008;50.024;8.172;2022-09-17T14:19:04;16.00;95.30
15815;DHT22;8008;50.024;8.172;2022-09-17T14:21:55;15.70;95.70
15815;DHT22;8008;50.024;8.172;2022-09-17T14:24:24;15.70;96.50
15815;DHT22;8008;50.024;8.172;2022-09-17T14:27:05;15.80;96.10
15815;DHT22;8008;50.024;8.172;2022-09-17T14:30:02;15.80;96.60
15815;DHT22;8008;50.024;8.172;2022-09-17T14:32:36;16.00;97.40
15815;DHT22;8008;50.024;8.172;2022-09-17T14:35:14;15.90;96.90
15815;DHT22;8008;50.024;8.172;2022-09-17T14:37:52;15.70;96.10
15815;DHT22;8008;50.024;8.172;2022-09-17T14:40:22;15.70;96.30
15815;DHT22;8008;50.024;8.172;2022-09-17T14:42:53;15.70;96.60
15815;DHT22;8008;50.024;8.172;2022-09-17T14:45:26;15.60;97.60
15815;DHT22;8008;50.024;8.172;2022-09-17T14:48:17;15.60;97.20
15815;DHT22;8008;50.024;8.172;2022-09-17T14:50:45;15.80;96.10
15815;DHT22;8008;50.024;8.172;2022-09-17T14:53:15;15.90;96.80
15815;DHT22;8008;50.024;8.172;2022-09-17T14:55:45;15.80;96.30
15815;DHT22;8008;50.024;8.172;2022-09-17T14:58:30;15.50;97.10
15815;DHT22;8008;50.024;8.172;2022-09-17T15:01:00;15.50;99.90
15815;DHT22;8008;50.024;8.172;2022-09-17T15:03:28;15.50;99.70
15815;DHT22;8008;50.024;8.172;2022-09-17T15:05:56;15.50;98.70
15815;DHT22;8008;50.024;8.172;2022-09-17T15:08:26;15.60;98.40
15815;DHT22;8008;50.024;8.172;2022-09-17T15:10:57;15.50;98.10
15815;DHT22;8008;50.024;8.172;2022-09-17T15:13:27;15.50;98.20
15815;DHT22;8008;50.024;8.172;2022-09-17T15:16:03;15.50;98.50
15815;DHT22;8008;50.024;8.172;2022-09-17T15:18:37;15.60;99.90
15815;DHT22;8008;50.024;8.172;2022-09-17T15:21:13;15.60;99.30
15815;DHT22;8008;50.024;8.172;2022-09-17T15:23:50;15.50;97.60
15815;DHT22;8008;50.024;8.172;2022-09-17T15:26:24;15.40;97.60
15815;DHT22;8008;50.024;8.172;2022-09-17T15:28:54;15.30;97.80
15815;DHT22;8008;50.024;8.172;2022-09-17T15:31:27;15.20;99.00
15815;DHT22;8008;50.024;8.172;2022-09-17T15:33:58;15.10;99.90
15815;DHT22;8008;50.024;8.172;2022-09-17T15:36:27;15.00;99.90
15815;DHT22;8008;50.024;8.172;2022-09-17T15:38:57;14.80;99.90
15815;DHT22;8008;50.024;8.172;2022-09-17T15:41:32;14.70;99.90
15815;DHT22;8008;50.024;8.172;2022-09-17T15:44:15;14.50;99.90
15815;DHT22;8008;50.024;8.172;2022-09-17T15:50:14;14.50;99.90
15815;DHT22;8008;50.024;8.172;2022-09-17T15:52:42;14.40;99.90
15815;DHT22;8008;50.024;8.172;2022-09-17T15:55:31;14.40;99.90
15815;DHT22;8008;50.024;8.172;2022-09-17T15:58:00;14.50;99.90
15815;DHT22;8008;50.024;8.172;2022-09-17T16:00:29;14.70;99.90
15815;DHT22;8008;50.024;8.172;2022-09-17T16:02:57;14.80;99.90
15815;DHT22;8008;50.024;8.172;2022-09-17T16:05:47;14.80;99.90
15815;DHT22;8008;50.024;8.172;2022-09-17T16:08:23;14.60;99.90
15815;DHT22;8008;50.024;8.172;2022-09-17T16:10:51;14.50;99.90
15815;DHT22;8008;50.024;8.172;2022-09-17T16:13:19;14.50;99.90
15815;DHT22;8008;50.024;8.172;2022-09-17T16:15:53;14.60;99.90
15815;DHT22;8008;50.024;8.172;2022-09-17T16:18:21;14.50;99.90
15815;DHT22;8008;50.024;8.172;2022-09-17T16:20:51;14.50;99.90
15815;DHT22;8008;50.024;8.172;2022-09-17T16:23:18;14.60;99.90
15815;DHT22;8008;50.024;8.172;2022-09-17T16:25:46;14.50;99.90
15815;DHT22;8008;50.024;8.172;2022-09-17T16:28:17;14.40;99.90
15815;DHT22;8008;50.024;8.172;2022-09-17T16:30:46;14.40;99.90
15815;DHT22;8008;50.024;8.172;2022-09-17T16:33:16;14.50;99.90
15815;DHT22;8008;50.024;8.172;2022-09-17T16:35:44;14.60;99.90
15815;DHT22;8008;50.024;8.172;2022-09-17T16:38:13;14.60;99.90
15815;DHT22;8008;50.024;8.172;2022-09-17T16:40:43;14.50;99.90
15815;DHT22;8008;50.024;8.172;2022-09-17T16:43:12;14.30;99.90
15815;DHT22;8008;50.024;8.172;2022-09-17T16:45:40;14.20;99.90
15815;DHT22;8008;50.024;8.172;2022-09-17T16:48:09;14.10;99.90
15815;DHT22;8008;50.024;8.172;2022-09-17T16:50:38;14.00;99.90
15815;DHT22;8008;50.024;8.172;2022-09-17T16:53:06;14.00;99.90
15815;DHT22;8008;50.024;8.172;2022-09-17T16:55:35;13.80;99.90
15815;DHT22;8008;50.024;8.172;2022-09-17T16:58:05;13.80;99.90
15815;DHT22;8008;50.024;8.172;2022-09-17T17:00:33;13.80;99.90
15815;DHT22;8008;50.024;8.172;2022-09-17T17:03:02;13.70;99.90
15815;DHT22;8008;50.024;8.172;2022-09-17T17:05:31;13.70;99.90
15815;DHT22;8008;50.024;8.172;2022-09-17T17:08:02;13.60;99.90
15815;DHT22;8008;50.024;8.172;2022-09-17T17:10:41;13.70;99.90
15815;DHT22;8008;50.024;8.172;2022-09-17T17:13:09;13.70;99.90
15815;DHT22;8008;50.024;8.172;2022-09-17T17:15:39;13.70;99.90
15815;DHT22;8008;50.024;8.172;2022-09-17T17:18:07;13.70;99.90
15815;DHT22;8008;50.024;8.172;2022-09-17T17:20:35;13.70;99.90
15815;DHT22;8008;50.024;8.172;2022-09-17T17:23:03;13.60;99.90
15815;DHT22;8008;50.024;8.172;2022-09-17T17:25:31;13.60;99.90
15815;DHT22;8008;50.024;8.172;2022-09-17T17:28:00;13.50;99.90
15815;DHT22;8008;50.024;8.172;2022-09-17T17:30:28;13.50;99.90
15815;DHT22;8008;50.024;8.172;2022-09-17T17:33:00;13.30;99.90
15815;DHT22;8008;50.024;8.172;2022-09-17T17:35:29;13.30;99.90
15815;DHT22;8008;50.024;8.172;2022-09-17T17:37:57;13.20;99.90
15815;DHT22;8008;50.024;8.172;2022-09-17T17:40:25;13.10;99.90
15815;DHT22;8008;50.024;8.172;2022-09-17T17:42:53;13.00;99.90
15815;DHT22;8008;50.024;8.172;2022-09-17T17:45:22;12.90;99.90
15815;DHT22;8008;50.024;8.172;2022-09-17T17:47:51;12.90;99.90
15815;DHT22;8008;50.024;8.172;2022-09-17T17:50:19;12.90;99.90
15815;DHT22;8008;50.024;8.172;2022-09-17T17:52:47;12.80;99.90
15815;DHT22;8008;50.024;8.172;2022-09-17T17:55:15;12.80;99.90
15815;DHT22;8008;50.024;8.172;2022-09-17T17:57:43;12.70;99.90
15815;DHT22;8008;50.024;8.172;2022-09-17T18:00:12;12.60;99.90
15815;DHT22;8008;50.024;8.172;2022-09-17T18:02:43;12.30;99.90
15815;DHT22;8008;50.024;8.172;2022-09-17T18:05:11;12.30;99.90
15815;DHT22;8008;50.024;8.172;2022-09-17T18:07:39;12.30;99.90
15815;DHT22;8008;50.024;8.172;2022-09-17T18:10:07;12.30;99.90
15815;DHT22;8008;50.024;8.172;2022-09-17T18:12:35;12.30;99.90
15815;DHT22;8008;50.024;8.172;2022-09-17T18:15:04;12.20;99.90
15815;DHT22;8008;50.024;8.172;2022-09-17T18:17:32;12.20;99.90
15815;DHT22;8008;50.024;8.172;2022-09-17T18:20:03;12.10;99.90
15815;DHT22;8008;50.024;8.172;2022-09-17T18:22:32;12.10;99.90
15815;DHT22;8008;50.024;8.172;2022-09-17T18:24:59;12.00;99.90
15815;DHT22;8008;50.024;8.172;2022-09-17T18:27:27;11.90;99.90
15815;DHT22;8008;50.024;8.172;2022-09-17T18:29:55;11.80;99.90
15815;DHT22;8008;50.024;8.172;2022-09-17T18:32:23;11.70;99.90
15815;DHT22;8008;50.024;8.172;2022-09-17T18:34:51;11.70;99.90
15815;DHT22;8008;50.024;8.172;2022-09-17T18:37:20;11.60;99.90
15815;DHT22;8008;50.024;8.172;2022-09-17T18:39:48;11.60;99.90
15815;DHT22;8008;50.024;8.172;2022-09-17T18:42:24;11.50;99.90
15815;DHT22;8008;50.024;8.172;2022-09-17T18:44:52;11.40;99.90
15815;DHT22;8008;50.024;8.172;2022-09-17T18:47:20;11.40;99.90
15815;DHT22;8008;50.024;8.172;2022-09-17T18:49:48;11.40;99.90
15815;DHT22;8008;50.024;8.172;2022-09-17T18:52:16;11.40;99.90
15815;DHT22;8008;50.024;8.172;2022-09-17T18:54:45;11.40;99.90
15815;DHT22;8008;50.024;8.172;2022-09-17T18:57:13;11.40;99.90
15815;DHT22;8008;50.024;8.172;2022-09-17T18:59:41;11.40;99.90
15815;DHT22;8008;50.024;8.172;2022-09-17T19:02:10;11.40;99.90
15815;DHT22;8008;50.024;8.172;2022-09-17T19:04:39;11.40;99.90
15815;DHT22;8008;50.024;8.172;2022-09-17T19:07:07;11.40;99.90
15815;DHT22;8008;50.024;8.172;2022-09-17T19:09:35;11.40;99.90
15815;DHT22;8008;50.024;8.172;2022-09-17T19:12:04;11.40;99.90
15815;DHT22;8008;50.024;8.172;2022-09-17T19:14:32;11.40;99.90
15815;DHT22;8008;50.024;8.172;2022-09-17T19:17:00;11.30;99.90
15815;DHT22;8008;50.024;8.172;2022-09-17T19:19:28;11.30;99.90
15815;DHT22;8008;50.024;8.172;2022-09-17T19:21:56;11.40;99.90
15815;DHT22;8008;50.024;8.172;2022-09-17T19:24:25;11.50;99.90
15815;DHT22;8008;50.024;8.172;2022-09-17T19:26:52;11.50;99.90
15815;DHT22;8008;50.024;8.172;2022-09-17T19:29:22;11.60;99.90
15815;DHT22;8008;50.024;8.172;2022-09-17T19:31:49;11.50;99.90
15815;DHT22;8008;50.024;8.172;2022-09-17T19:34:17;11.40;99.90
15815;DHT22;8008;50.024;8.172;2022-09-17T19:36:45;11.40;99.90
15815;DHT22;8008;50.024;8.172;2022-09-17T19:39:13;11.30;99.90
15815;DHT22;8008;50.024;8.172;2022-09-17T19:41:43;11.20;99.90